createdAt,value
2023-04-15T00:02:57.381Z,995.185
2023-04-15T00:33:17.577Z,995.1
2023-04-15T01:03:36.866Z,994.988
2023-04-15T01:33:55.738Z,994.9639
2023-04-15T02:04:15.116Z,995.049
2023-04-15T02:34:32.569Z,995.029
2023-04-15T03:04:49.351Z,995.061
2023-04-15T03:35:06.900Z,995.155
2023-04-15T04:05:26.008Z,995.132
2023-04-15T04:35:43.592Z,995.0528999999999
2023-04-15T05:06:01.490Z,995.1159
2023-04-15T05:36:21.981Z,995.3380000000001
2023-04-15T06:06:40.650Z,995.51
2023-04-15T06:37:01.545Z,995.6428999999999
2023-04-15T07:07:27.250Z,995.5979
2023-04-15T07:38:09.836Z,995.6619999999999
2023-04-15T08:08:34.751Z,995.872
2023-04-15T08:38:55.973Z,996.057
2023-04-15T09:09:29.481Z,996.118
2023-04-15T09:39:39.887Z,996.5079
2023-04-15T10:10:01.050Z,996.5939999999999
2023-04-15T10:40:19.835Z,996.8228999999999
2023-04-15T11:10:36.609Z,997.171
2023-04-15T11:40:57.505Z,997.347
2023-04-15T12:11:09.483Z,997.7360000000001
2023-04-15T12:41:26.684Z,998.0260000000001
2023-04-15T13:11:47.659Z,998.403
2023-04-15T13:41:59.373Z,998.9779
2023-04-15T14:12:15.769Z,999.35
2023-04-15T14:42:30.746Z,999.7189999999999
2023-04-15T15:12:47.473Z,999.8879
2023-04-15T15:43:01.718Z,1000.176
2023-04-15T16:43:34.069Z,1000.988
2023-04-15T17:13:53.680Z,1001.2410000000001
2023-04-15T17:44:16.327Z,1001.5830000000001
2023-04-15T18:14:34.995Z,1001.9939999999999
2023-04-15T18:44:52.319Z,1002.5219999999999
2023-04-15T19:15:09.967Z,1002.987
2023-04-15T19:45:28.844Z,1003.268
2023-04-15T20:15:47.525Z,1003.422
2023-04-15T20:46:17.961Z,1003.576
2023-04-15T21:16:32.143Z,1003.6419999999999
2023-04-15T22:17:21.839Z,1004.352
2023-04-15T22:47:40.970Z,1004.707
2023-04-15T23:18:02.095Z,1004.939
2023-04-15T23:48:20.201Z,1005.048
